sensor_id;sensor_type;location;lat;lon;timestamp;P1;durP1;ratioP1;P2;durP2;ratioP2
16975;SDS011;8604;48.148;-1.786;2023-03-01T00:00:05;25.83;;;20.93;;
16975;SDS011;8604;48.148;-1.786;2023-03-01T00:02:36;26.97;;;20.50;;
16975;SDS011;8604;48.148;-1.786;2023-03-01T00:05:05;25.13;;;18.83;;
16975;SDS011;8604;48.148;-1.786;2023-03-01T00:07:34;27.57;;;19.60;;
16975;SDS011;8604;48.148;-1.786;2023-03-01T00:10:03;26.67;;;20.23;;
16975;SDS011;8604;48.148;-1.786;2023-03-01T00:12:32;25.83;;;19.93;;
16975;SDS011;8604;48.148;-1.786;2023-03-01T00:15:01;26.03;;;20.03;;
16975;SDS011;8604;48.148;-1.786;2023-03-01T00:17:31;26.33;;;19.80;;
16975;SDS011;8604;48.148;-1.786;2023-03-01T00:19:59;27.20;;;20.30;;
16975;SDS011;8604;48.148;-1.786;2023-03-01T00:22:28;28.57;;;19.67;;
16975;SDS011;8604;48.148;-1.786;2023-03-01T00:24:56;27.87;;;20.03;;
16975;SDS011;8604;48.148;-1.786;2023-03-01T00:27:25;27.87;;;20.73;;
16975;SDS011;8604;48.148;-1.786;2023-03-01T00:29:53;29.60;;;20.07;;
16975;SDS011;8604;48.148;-1.786;2023-03-01T00:32:23;27.67;;;20.03;;
16975;SDS011;8604;48.148;-1.786;2023-03-01T00:34:52;26.37;;;20.37;;
16975;SDS011;8604;48.148;-1.786;2023-03-01T00:37:22;28.67;;;20.63;;
16975;SDS011;8604;48.148;-1.786;2023-03-01T00:39:52;28.57;;;21.23;;
16975;SDS011;8604;48.148;-1.786;2023-03-01T00:42:20;29.60;;;20.53;;
16975;SDS011;8604;48.148;-1.786;2023-03-01T00:44:49;29.10;;;20.87;;
16975;SDS011;8604;48.148;-1.786;2023-03-01T00:47:18;27.47;;;20.73;;
16975;SDS011;8604;48.148;-1.786;2023-03-01T00:49:48;27.20;;;20.27;;
16975;SDS011;8604;48.148;-1.786;2023-03-01T00:52:18;29.47;;;21.53;;
16975;SDS011;8604;48.148;-1.786;2023-03-01T00:54:46;27.57;;;21.37;;
16975;SDS011;8604;48.148;-1.786;2023-03-01T00:57:14;29.87;;;22.30;;
16975;SDS011;8604;48.148;-1.786;2023-03-01T00:59:43;26.43;;;20.50;;
16975;SDS011;8604;48.148;-1.786;2023-03-01T01:02:11;28.57;;;21.00;;
16975;SDS011;8604;48.148;-1.786;2023-03-01T01:04:40;26.23;;;20.97;;
16975;SDS011;8604;48.148;-1.786;2023-03-01T01:07:10;29.77;;;22.40;;
16975;SDS011;8604;48.148;-1.786;2023-03-01T01:09:38;28.93;;;22.03;;
16975;SDS011;8604;48.148;-1.786;2023-03-01T01:12:07;29.53;;;21.60;;
16975;SDS011;8604;48.148;-1.786;2023-03-01T01:14:35;30.70;;;22.60;;
16975;SDS011;8604;48.148;-1.786;2023-03-01T01:17:04;31.03;;;21.57;;
16975;SDS011;8604;48.148;-1.786;2023-03-01T01:19:32;30.10;;;21.23;;
16975;SDS011;8604;48.148;-1.786;2023-03-01T01:22:01;30.17;;;21.30;;
16975;SDS011;8604;48.148;-1.786;2023-03-01T01:24:32;30.03;;;22.67;;
16975;SDS011;8604;48.148;-1.786;2023-03-01T01:27:00;30.80;;;22.13;;
16975;SDS011;8604;48.148;-1.786;2023-03-01T01:29:29;28.47;;;21.03;;
16975;SDS011;8604;48.148;-1.786;2023-03-01T01:31:57;29.60;;;21.50;;
16975;SDS011;8604;48.148;-1.786;2023-03-01T01:34:26;30.13;;;21.40;;
16975;SDS011;8604;48.148;-1.786;2023-03-01T01:36:54;29.13;;;21.80;;
16975;SDS011;8604;48.148;-1.786;2023-03-01T01:39:23;29.43;;;21.80;;
16975;SDS011;8604;48.148;-1.786;2023-03-01T01:41:53;28.93;;;21.10;;
16975;SDS011;8604;48.148;-1.786;2023-03-01T01:44:22;30.40;;;21.63;;
16975;SDS011;8604;48.148;-1.786;2023-03-01T01:46:52;28.97;;;20.10;;
16975;SDS011;8604;48.148;-1.786;2023-03-01T01:49:25;25.90;;;19.97;;
16975;SDS011;8604;48.148;-1.786;2023-03-01T01:51:58;25.30;;;19.57;;
16975;SDS011;8604;48.148;-1.786;2023-03-01T01:54:31;24.80;;;18.73;;
16975;SDS011;8604;48.148;-1.786;2023-03-01T01:57:09;26.53;;;19.47;;
16975;SDS011;8604;48.148;-1.786;2023-03-01T01:59:40;25.47;;;19.23;;
16975;SDS011;8604;48.148;-1.786;2023-03-01T02:02:11;24.77;;;18.70;;
16975;SDS011;8604;48.148;-1.786;2023-03-01T02:04:40;24.57;;;19.10;;
16975;SDS011;8604;48.148;-1.786;2023-03-01T02:07:11;24.67;;;18.50;;
16975;SDS011;8604;48.148;-1.786;2023-03-01T02:09:43;24.77;;;19.13;;
16975;SDS011;8604;48.148;-1.786;2023-03-01T02:12:16;24.40;;;17.93;;
16975;SDS011;8604;48.148;-1.786;2023-03-01T02:14:47;25.33;;;18.97;;
16975;SDS011;8604;48.148;-1.786;2023-03-01T02:17:16;23.97;;;17.63;;
16975;SDS011;8604;48.148;-1.786;2023-03-01T02:19:48;22.27;;;16.73;;
16975;SDS011;8604;48.148;-1.786;2023-03-01T02:22:25;24.73;;;17.27;;
16975;SDS011;8604;48.148;-1.786;2023-03-01T02:25:01;24.93;;;18.37;;
16975;SDS011;8604;48.148;-1.786;2023-03-01T02:27:40;23.53;;;17.57;;
16975;SDS011;8604;48.148;-1.786;2023-03-01T02:30:19;24.33;;;18.10;;
16975;SDS011;8604;48.148;-1.786;2023-03-01T02:32:51;22.80;;;17.37;;
16975;SDS011;8604;48.148;-1.786;2023-03-01T02:35:19;23.23;;;17.07;;
16975;SDS011;8604;48.148;-1.786;2023-03-01T02:37:48;22.83;;;16.47;;
16975;SDS011;8604;48.148;-1.786;2023-03-01T02:40:17;22.77;;;16.50;;
16975;SDS011;8604;48.148;-1.786;2023-03-01T02:42:49;21.30;;;16.50;;
16975;SDS011;8604;48.148;-1.786;2023-03-01T02:45:21;21.17;;;16.03;;
16975;SDS011;8604;48.148;-1.786;2023-03-01T02:47:50;22.73;;;16.77;;
16975;SDS011;8604;48.148;-1.786;2023-03-01T02:50:24;23.10;;;16.30;;
16975;SDS011;8604;48.148;-1.786;2023-03-01T02:53:08;22.60;;;17.23;;
16975;SDS011;8604;48.148;-1.786;2023-03-01T02:55:40;21.83;;;16.70;;
16975;SDS011;8604;48.148;-1.786;2023-03-01T02:58:09;20.13;;;15.77;;
16975;SDS011;8604;48.148;-1.786;2023-03-01T03:00:40;23.67;;;17.00;;
16975;SDS011;8604;48.148;-1.786;2023-03-01T03:03:13;23.07;;;17.57;;
16975;SDS011;8604;48.148;-1.786;2023-03-01T03:05:44;21.00;;;16.03;;
16975;SDS011;8604;48.148;-1.786;2023-03-01T03:08:12;23.07;;;16.87;;
16975;SDS011;8604;48.148;-1.786;2023-03-01T03:10:42;22.23;;;16.63;;
16975;SDS011;8604;48.148;-1.786;2023-03-01T03:13:12;21.60;;;16.57;;
16975;SDS011;8604;48.148;-1.786;2023-03-01T03:15:43;21.53;;;16.43;;
16975;SDS011;8604;48.148;-1.786;2023-03-01T03:18:12;22.90;;;17.43;;
16975;SDS011;8604;48.148;-1.786;2023-03-01T03:20:43;21.83;;;17.33;;
16975;SDS011;8604;48.148;-1.786;2023-03-01T03:23:11;22.23;;;16.87;;
16975;SDS011;8604;48.148;-1.786;2023-03-01T03:25:40;21.23;;;16.47;;
16975;SDS011;8604;48.148;-1.786;2023-03-01T03:28:08;21.10;;;15.37;;
16975;SDS011;8604;48.148;-1.786;2023-03-01T03:30:37;21.47;;;16.33;;
16975;SDS011;8604;48.148;-1.786;2023-03-01T03:33:09;22.47;;;16.47;;
16975;SDS011;8604;48.148;-1.786;2023-03-01T03:35:41;22.20;;;16.53;;
16975;SDS011;8604;48.148;-1.786;2023-03-01T03:38:12;20.83;;;15.87;;
16975;SDS011;8604;48.148;-1.786;2023-03-01T03:40:46;22.33;;;16.17;;
16975;SDS011;8604;48.148;-1.786;2023-03-01T03:43:16;22.10;;;16.37;;
16975;SDS011;8604;48.148;-1.786;2023-03-01T03:45:47;20.60;;;16.10;;
16975;SDS011;8604;48.148;-1.786;2023-03-01T03:48:18;22.13;;;16.00;;
16975;SDS011;8604;48.148;-1.786;2023-03-01T03:50:48;21.43;;;16.33;;
16975;SDS011;8604;48.148;-1.786;2023-03-01T03:53:18;20.47;;;15.57;;
16975;SDS011;8604;48.148;-1.786;2023-03-01T03:55:46;20.63;;;15.97;;
16975;SDS011;8604;48.148;-1.786;2023-03-01T03:58:18;22.67;;;16.50;;
16975;SDS011;8604;48.148;-1.786;2023-03-01T04:00:49;20.57;;;16.20;;
16975;SDS011;8604;48.148;-1.786;2023-03-01T04:03:20;21.93;;;16.00;;
16975;SDS011;8604;48.148;-1.786;2023-03-01T04:05:50;23.13;;;16.40;;
16975;SDS011;8604;48.148;-1.786;2023-03-01T04:08:19;22.30;;;15.97;;
16975;SDS011;8604;48.148;-1.786;2023-03-01T04:10:49;23.30;;;16.80;;
16975;SDS011;8604;48.148;-1.786;2023-03-01T04:13:24;22.00;;;16.53;;
16975;SDS011;8604;48.148;-1.786;2023-03-01T04:15:53;25.27;;;17.33;;
16975;SDS011;8604;48.148;-1.786;2023-03-01T04:18:23;22.97;;;16.60;;
16975;SDS011;8604;48.148;-1.786;2023-03-01T04:20:52;21.70;;;16.57;;
16975;SDS011;8604;48.148;-1.786;2023-03-01T04:23:22;22.47;;;16.73;;
16975;SDS011;8604;48.148;-1.786;2023-03-01T04:25:51;21.43;;;15.67;;
16975;SDS011;8604;48.148;-1.786;2023-03-01T04:28:21;22.50;;;16.87;;
16975;SDS011;8604;48.148;-1.786;2023-03-01T04:30:51;22.53;;;16.73;;
16975;SDS011;8604;48.148;-1.786;2023-03-01T04:33:20;21.33;;;16.50;;
16975;SDS011;8604;48.148;-1.786;2023-03-01T04:35:50;22.63;;;17.17;;
16975;SDS011;8604;48.148;-1.786;2023-03-01T04:38:20;22.30;;;16.43;;
16975;SDS011;8604;48.148;-1.786;2023-03-01T04:40:48;21.83;;;15.83;;
16975;SDS011;8604;48.148;-1.786;2023-03-01T04:43:17;21.80;;;15.97;;
16975;SDS011;8604;48.148;-1.786;2023-03-01T04:45:45;22.43;;;16.37;;
16975;SDS011;8604;48.148;-1.786;2023-03-01T04:48:13;21.83;;;16.43;;
16975;SDS011;8604;48.148;-1.786;2023-03-01T04:50:43;22.40;;;15.97;;
16975;SDS011;8604;48.148;-1.786;2023-03-01T04:53:12;20.57;;;15.73;;
16975;SDS011;8604;48.148;-1.786;2023-03-01T04:55:40;21.87;;;15.77;;
16975;SDS011;8604;48.148;-1.786;2023-03-01T04:58:08;21.40;;;15.67;;
16975;SDS011;8604;48.148;-1.786;2023-03-01T05:00:37;20.43;;;15.40;;
16975;SDS011;8604;48.148;-1.786;2023-03-01T05:03:05;18.43;;;14.30;;
16975;SDS011;8604;48.148;-1.786;2023-03-01T05:05:34;20.27;;;14.40;;
16975;SDS011;8604;48.148;-1.786;2023-03-01T05:08:06;20.50;;;14.63;;
16975;SDS011;8604;48.148;-1.786;2023-03-01T05:10:35;20.90;;;15.53;;
16975;SDS011;8604;48.148;-1.786;2023-03-01T05:13:05;18.77;;;14.07;;
16975;SDS011;8604;48.148;-1.786;2023-03-01T05:15:34;18.63;;;15.00;;
16975;SDS011;8604;48.148;-1.786;2023-03-01T05:18:03;22.07;;;15.47;;
16975;SDS011;8604;48.148;-1.786;2023-03-01T05:20:37;39.13;;;26.60;;
16975;SDS011;8604;48.148;-1.786;2023-03-01T05:23:07;20.07;;;15.27;;
16975;SDS011;8604;48.148;-1.786;2023-03-01T05:25:36;21.77;;;16.40;;
16975;SDS011;8604;48.148;-1.786;2023-03-01T05:28:07;22.03;;;16.10;;
16975;SDS011;8604;48.148;-1.786;2023-03-01T05:30:39;20.63;;;17.73;;
16975;SDS011;8604;48.148;-1.786;2023-03-01T05:33:08;21.33;;;17.10;;
16975;SDS011;8604;48.148;-1.786;2023-03-01T05:35:40;21.47;;;18.27;;
16975;SDS011;8604;48.148;-1.786;2023-03-01T05:38:11;23.30;;;17.33;;
16975;SDS011;8604;48.148;-1.786;2023-03-01T05:40:40;21.60;;;17.60;;
16975;SDS011;8604;48.148;-1.786;2023-03-01T05:43:10;21.13;;;15.87;;
16975;SDS011;8604;48.148;-1.786;2023-03-01T05:45:39;23.07;;;16.73;;
16975;SDS011;8604;48.148;-1.786;2023-03-01T05:48:08;21.40;;;16.50;;
16975;SDS011;8604;48.148;-1.786;2023-03-01T05:50:40;21.80;;;16.67;;
16975;SDS011;8604;48.148;-1.786;2023-03-01T05:53:11;19.30;;;15.70;;
16975;SDS011;8604;48.148;-1.786;2023-03-01T05:55:41;43.43;;;33.70;;
16975;SDS011;8604;48.148;-1.786;2023-03-01T05:58:11;39.40;;;28.70;;
16975;SDS011;8604;48.148;-1.786;2023-03-01T06:00:41;32.33;;;23.17;;
16975;SDS011;8604;48.148;-1.786;2023-03-01T06:03:11;28.43;;;20.77;;
16975;SDS011;8604;48.148;-1.786;2023-03-01T06:05:40;26.03;;;20.77;;
16975;SDS011;8604;48.148;-1.786;2023-03-01T06:08:11;22.67;;;18.27;;
16975;SDS011;8604;48.148;-1.786;2023-03-01T06:10:40;25.30;;;20.17;;
16975;SDS011;8604;48.148;-1.786;2023-03-01T06:13:08;24.70;;;19.27;;
16975;SDS011;8604;48.148;-1.786;2023-03-01T06:15:37;24.57;;;20.73;;
16975;SDS011;8604;48.148;-1.786;2023-03-01T06:18:05;21.93;;;17.77;;
16975;SDS011;8604;48.148;-1.786;2023-03-01T06:20:34;22.17;;;17.50;;
16975;SDS011;8604;48.148;-1.786;2023-03-01T06:23:02;25.03;;;20.13;;
16975;SDS011;8604;48.148;-1.786;2023-03-01T06:25:32;24.20;;;16.67;;
16975;SDS011;8604;48.148;-1.786;2023-03-01T06:28:00;19.10;;;15.07;;
16975;SDS011;8604;48.148;-1.786;2023-03-01T06:30:31;20.23;;;13.97;;
16975;SDS011;8604;48.148;-1.786;2023-03-01T06:32:59;19.30;;;14.33;;
16975;SDS011;8604;48.148;-1.786;2023-03-01T06:35:29;21.07;;;14.03;;
16975;SDS011;8604;48.148;-1.786;2023-03-01T06:37:58;19.50;;;14.47;;
16975;SDS011;8604;48.148;-1.786;2023-03-01T06:40:28;19.10;;;13.63;;
16975;SDS011;8604;48.148;-1.786;2023-03-01T06:42:59;17.67;;;13.50;;
16975;SDS011;8604;48.148;-1.786;2023-03-01T22:34:04;22.93;;;14.57;;
16975;SDS011;8604;48.148;-1.786;2023-03-01T22:36:32;23.43;;;14.90;;
16975;SDS011;8604;48.148;-1.786;2023-03-01T22:39:01;20.67;;;14.00;;
16975;SDS011;8604;48.148;-1.786;2023-03-01T22:41:30;23.87;;;14.77;;
16975;SDS011;8604;48.148;-1.786;2023-03-01T22:44:00;23.57;;;15.80;;
16975;SDS011;8604;48.148;-1.786;2023-03-01T22:46:28;24.03;;;15.30;;
16975;SDS011;8604;48.148;-1.786;2023-03-01T22:48:58;21.77;;;14.10;;
16975;SDS011;8604;48.148;-1.786;2023-03-01T22:51:28;20.93;;;13.67;;
16975;SDS011;8604;48.148;-1.786;2023-03-01T22:53:58;19.50;;;13.80;;
16975;SDS011;8604;48.148;-1.786;2023-03-01T22:56:27;19.70;;;13.17;;
16975;SDS011;8604;48.148;-1.786;2023-03-01T22:59:01;21.73;;;13.07;;
16975;SDS011;8604;48.148;-1.786;2023-03-01T23:01:33;20.43;;;13.17;;
16975;SDS011;8604;48.148;-1.786;2023-03-01T23:04:02;19.83;;;13.90;;
16975;SDS011;8604;48.148;-1.786;2023-03-01T23:06:32;25.40;;;14.37;;
16975;SDS011;8604;48.148;-1.786;2023-03-01T23:09:16;20.03;;;13.67;;
16975;SDS011;8604;48.148;-1.786;2023-03-01T23:11:46;20.50;;;13.43;;
16975;SDS011;8604;48.148;-1.786;2023-03-01T23:14:14;23.80;;;13.63;;
16975;SDS011;8604;48.148;-1.786;2023-03-01T23:16:42;19.53;;;12.83;;
16975;SDS011;8604;48.148;-1.786;2023-03-01T23:19:11;18.87;;;13.50;;
16975;SDS011;8604;48.148;-1.786;2023-03-01T23:21:43;20.80;;;13.50;;
16975;SDS011;8604;48.148;-1.786;2023-03-01T23:24:18;20.23;;;13.17;;
16975;SDS011;8604;48.148;-1.786;2023-03-01T23:26:48;19.13;;;12.67;;
16975;SDS011;8604;48.148;-1.786;2023-03-01T23:29:19;18.27;;;13.00;;
16975;SDS011;8604;48.148;-1.786;2023-03-01T23:31:53;18.10;;;12.97;;
16975;SDS011;8604;48.148;-1.786;2023-03-01T23:34:22;20.17;;;13.13;;
16975;SDS011;8604;48.148;-1.786;2023-03-01T23:36:53;20.93;;;13.17;;
16975;SDS011;8604;48.148;-1.786;2023-03-01T23:39:23;19.70;;;13.23;;
16975;SDS011;8604;48.148;-1.786;2023-03-01T23:41:51;20.87;;;13.57;;
16975;SDS011;8604;48.148;-1.786;2023-03-01T23:44:20;21.33;;;12.80;;
16975;SDS011;8604;48.148;-1.786;2023-03-01T23:46:49;23.87;;;12.60;;
16975;SDS011;8604;48.148;-1.786;2023-03-01T23:49:18;18.87;;;13.27;;
16975;SDS011;8604;48.148;-1.786;2023-03-01T23:51:48;21.60;;;13.43;;
16975;SDS011;8604;48.148;-1.786;2023-03-01T23:54:19;20.03;;;13.43;;
16975;SDS011;8604;48.148;-1.786;2023-03-01T23:56:49;20.00;;;12.93;;
16975;SDS011;8604;48.148;-1.786;2023-03-01T23:59:18;19.60;;;12.90;;
